Fenton, Missouri
Current Conditions -  °F | °C
As of 9:54 PM on Monday 22 Dec 2014 (Local Time) from KSUS Reporting Station
Light Rain Light Rain  
Wind Chill: 50°   Ceiling: 2000
Heat Index: 50°   Visibility: 9mi
Dew Point: 48°   Wind: 3mph
Humidity: 93%   Direction: NA
Pressure: 29.52"   Gusts: NA
Location:  38.54°N, 90.45°W
Report Text: KSUS 230354Z VRB03KT 9SM -RA FEW009 BKN020 OVC042 10/09 A2952 RMK AO2 SLP999 P0002 T01000089
Loading
Personal Weather Stations






























Interactive Weather Map New forecast layout! Learn more

10-Day Weather Forecast

Advertisements
Track Severe Weather on mobile